23分钟前
罗盘
风向 的 风向 250° Aérodrome d'Arcachon-La Teste-de-Buch 07R/25L
风: 3 千吨, 1 beaufort
0 500 1.500 3.000 5.000 8.000 10.000
FEW 2.100 ft
SCT 3.800 ft
BKN 13.000 ft
METAR LFBM 291700Z AUTO 25003KT 9999 FEW021 SCT038 BKN130 07/06 Q1020 NOSIG

METAR定义 | 嵌入

24小时趋势

航班类别VFRLIFR
温度9 °C-1 °C
风速10 千吨0 千吨
能见度10 公里+0 米

更多历史数据

下载我们的安卓应用程序

从你的主屏幕上轻松地访问你的航空天气。
只需一次付费,您就可以获得无广告的体验。

您会帮助我们保持Metar-Taf.com正常运行吗?
您的贡献有助于网站的进一步开发并支付费用。

没有更多广告

您是捐款5美元还是更多?然后,我们将永远不会再向您展示广告,这是我们永恒的感谢!
捐赠前先登录

METAR Aérodrome d'Arcachon-La Teste-de-Buch

Aérodrome d'Arcachon-La Teste-de-Buch是Arcachon/La Teste-de-Buch,法国中的中型机场。 机场有{a,plural,=1{一条跑道} other{#跑道}}: 07R/25L 和 07L/25R

Aérodrome d'Arcachon-La Teste-de-Buch最近未发布观察结果。相反,我们向您显示90 km的报告Mont-de-Marsan (BA 118) Air Base。 该报告是针对2021年11月29日 18:00, 当地时间进行的。

机场观察

风来自西南西 (250°)方向,速度为3 千吨。

可见度为10 公里 或者更多。

有几云在2.100 ft的高度, 疏云,零星散落的云朵在3.800 ft的高度 和 碎云在13.000 ft的高度。 破损或更高的上限为13.000 ft。

温度为7 °C,阵风为5 °C。 露点为6 °C,相对湿度为93%。 海平面上的气压为1020 压力 (QNH)。

白天

今天,太阳从08:18升起,在17:26降落。 这适用于Aérodrome d'Arcachon-La Teste-de-Buch,世界夏令时可能有所不同。 当地时间与世界标准时间之间的时差为+1 小时。 当前,没有夏令时有效。

公司介绍

在这个机场,你可以找到跳伞中心。 本场上唯一已知的公司是EPSBA。

体会

到Vliegles.nl去找飞行课程,跳伞和其他飞行体验。 浏览页面,了解Aérodrome d'Arcachon-La Teste-de-Buch附近所有可用的活动。 你也可以使用搜索功能来寻找你所在地附近的特定飞行课程、跳伞或其他飞行体验。

您是否要在网站上Aérodrome d'Arcachon-La Teste-de-Buch飞行的天气? 阅读更多   自由!